Terminal Aerodrome Forecast
Issued by NWS

Home | Current Version | Previous Version | Text Only | Print | Product List | Glossary Off
Versions: 1 2 3 4 5 6 7 8 9 10 11 12

000
FTUS43 KPAH 251120
TAFOWB
TAF
KOWB 251120Z 2512/2612 00000KT P6SM SKC
     FM251300 22003KT P6SM SCT050
     FM260000 24003KT P6SM FEW050 BKN200
     FM260900 32010KT P6SM BKN040 PROB30 2609/2612 -SHRA=

USA.gov is the U.S. government's official web portal to all federal, state and local government web resources and services.